Time;durP1;ratioP1;P1;durP2;ratioP2;P2;SDS_P1;SDS_P2;PMS_P1;PMS_P2;Temp;Humidity;BMP_temperature;BMP_pressure;BME280_temperature;BME280_humidity;BME280_pressure;Samples;Min_cycle;Max_cycle;Signal;HPM_P1;HPM_P2
2022/08/30 00:03:19;;;;;;;7.50;4.00;;;;;;;13.18;89.10;99039.42;109721;1276;1016508;-73
2022/08/30 00:08:53;;;;;;;8.00;4.10;;;;;;;13.07;89.39;99044.31;109658;1276;1018474;-74
2022/08/30 00:14:29;;;;;;;;;;;;;;;;;;;;;
2022/08/30 00:20:58;;;;;;;6.60;3.30;;;;;;;12.87;90.23;99044.05;218217;1276;1003237;-75
2022/08/30 00:26:56;;;;;;;7.80;4.20;;;;;;;12.80;90.36;99045.81;219352;1279;24248;-75
2022/08/30 00:32:30;;;;;;;5.60;3.60;;;;;;;12.76;90.47;99046.21;219804;1276;24316;-75
2022/08/30 00:38:38;;;;;;;4.70;3.40;;;;;;;12.75;90.71;99051.17;219903;1276;25380;-75
2022/08/30 00:44:19;;;;;;;8.20;4.20;;;;;;;12.72;90.97;99051.08;219714;1276;22542;-75
2022/08/30 00:49:43;;;;;;;7.90;4.40;;;;;;;12.65;90.97;99053.33;217702;1276;1003140;-76
2022/08/30 00:55:17;;;;;;;10.20;4.80;;;;;;;12.60;90.87;99057.08;219713;1279;23753;-75
2022/08/30 01:01:08;;;;;;;10.40;5.30;;;;;;;12.58;91.04;99057.17;219555;1278;24304;-74
2022/08/30 01:06:40;;;;;;;9.50;5.20;;;;;;;12.56;91.01;99055.85;219583;1279;22698;-76
2022/08/30 01:12:05;;;;;;;8.40;4.70;;;;;;;12.55;91.12;99053.02;219691;1278;24393;-74
2022/08/30 01:18:31;;;;;;;5.90;3.50;;;;;;;12.54;91.40;99054.54;219743;1277;22567;-76
2022/08/30 01:30:42;;;;;;;;;;;;;;;;;;;;;
2022/08/30 01:36:59;;;;;;;8.90;4.70;;;;;;;12.32;91.39;99046.41;215467;1282;1003967;-75
2022/08/30 01:43:45;;;;;;;7.90;4.00;;;;;;;12.29;91.71;99043.17;218627;1282;22757;-76
2022/08/30 01:55:45;;;;;;;12.30;4.50;;;;;;;12.21;91.84;99053.66;219366;1277;22965;-79
2022/08/30 02:02:30;;;;;;;8.30;4.30;;;;;;;12.17;92.00;99059.53;219717;1277;22554;-76
2022/08/30 02:09:10;;;;;;;10.30;5.60;;;;;;;12.09;92.27;99054.22;219399;1277;26392;-75
2022/08/30 02:22:04;;;;;;;6.60;4.80;;;;;;;12.01;92.40;99035.65;219746;1279;24330;-75
2022/08/30 02:27:49;;;;;;;10.90;5.10;;;;;;;11.96;92.62;99032.70;219274;1278;24334;-75
2022/08/30 02:34:05;;;;;;;9.70;4.80;;;;;;;11.91;92.67;99033.99;219733;1278;26379;-75
2022/08/30 02:40:08;;;;;;;;;;;;;;;;;;;;;
2022/08/30 02:46:34;;;;;;;9.20;4.80;;;;;;;11.80;92.96;99032.21;218685;1281;1002445;-76
2022/08/30 02:51:51;;;;;;;8.40;5.00;;;;;;;11.78;93.00;99025.73;219504;1280;22566;-76
2022/08/30 02:57:42;;;;;;;6.60;4.50;;;;;;;11.75;93.03;99028.52;219290;1280;25353;-75
2022/08/30 03:03:38;;;;;;;10.00;5.30;;;;;;;11.72;93.17;99024.58;218859;1280;25400;-75
2022/08/30 03:09:44;;;;;;;12.30;6.20;;;;;;;11.70;93.32;99026.07;214780;1281;1005223;-74
2022/08/30 03:16:00;;;;;;;10.50;6.00;;;;;;;11.71;93.70;99027.92;219097;1279;24277;-76
2022/08/30 03:27:59;;;;;;;6.00;4.10;;;;;;;11.74;94.03;99034.49;217638;1278;1004817;-75
2022/08/30 03:34:04;;;;;;;;;;;;;;;;;;;;;
2022/08/30 03:40:12;;;;;;;9.50;5.80;;;;;;;11.58;93.98;99036.52;219484;1278;22760;-76
2022/08/30 03:46:18;;;;;;;9.90;4.70;;;;;;;11.59;94.21;99049.94;219590;1277;24015;-76
2022/08/30 03:58:58;;;;;;;6.70;4.20;;;;;;;11.47;93.98;99061.23;219716;1281;22585;-76
2022/08/30 04:04:55;;;;;;;;;;;;;;;11.36;93.77;99063.84;219401;1277;1003663;-76
2022/08/30 04:10:50;;;;;;;;;;;;;;;;;;;;;
2022/08/30 04:16:19;;;;;;;6.10;3.90;;;;;;;11.28;94.48;99070.95;219800;1277;23782;-76
2022/08/30 04:21:41;;;;;;;12.70;4.70;;;;;;;11.29;94.66;99073.58;179162;1278;1016072;-75
2022/08/30 04:27:45;;;;;;;7.00;4.60;;;;;;;11.35;94.83;99072.86;150001;1277;1016227;-76
2022/08/30 04:33:48;;;;;;;8.30;5.40;;;;;;;11.43;95.30;99070.35;219812;1277;24239;-75
2022/08/30 04:40:03;;;;;;;11.40;4.70;;;;;;;11.52;95.17;99076.04;219927;1277;23066;-79
2022/08/30 04:45:26;;;;;;;7.70;4.90;;;;;;;11.59;95.06;99086.63;219823;1278;22580;-76
2022/08/30 04:51:56;;;;;;;;;;;;;;;;;;;;;
2022/08/30 04:57:48;;;;;;;9.60;6.30;;;;;;;11.73;95.20;99100.52;219744;1277;22574;-78
2022/08/30 05:04:01;;;;;;;;;;;;;;;;;;;;;
2022/08/30 05:10:01;;;;;;;12.10;5.00;;;;;;;12.05;95.53;99105.52;219453;1277;22567;-75
2022/08/30 05:16:06;;;;;;;10.40;5.60;;;;;;;12.22;95.65;99104.36;219895;1277;24261;-77
2022/08/30 05:21:55;;;;;;;10.60;6.80;;;;;;;12.36;95.68;99106.41;219601;1277;26521;-75
2022/08/30 05:27:44;;;;;;;17.00;6.30;;;;;;;12.56;95.80;99109.60;219121;1281;22710;-77
2022/08/30 05:34:04;;;;;;;13.80;5.30;;;;;;;12.75;96.11;99109.73;218848;1281;22592;-76
2022/08/30 05:39:43;;;;;;;7.50;4.50;;;;;;;12.91;95.96;99120.17;219396;1281;22558;-76
2022/08/30 05:46:18;;;;;;;22.40;6.80;;;;;;;13.05;95.91;99115.45;219382;1281;22600;-75
2022/08/30 05:58:31;;;;;;;10.10;6.30;;;;;;;13.44;96.00;99124.84;221962;1279;22835;-77
2022/08/30 06:04:04;;;;;;;13.60;6.90;;;;;;;13.66;95.93;99119.56;221741;1279;22653;-76
2022/08/30 06:09:37;;;;;;;11.80;6.90;;;;;;;13.89;95.89;99125.29;219745;1279;22740;-76
2022/08/30 06:14:45;;;;;;;14.50;7.50;;;;;;;14.06;95.77;99127.45;220430;1277;25418;-75
2022/08/30 06:20:21;;;;;;;14.10;7.20;;;;;;;14.26;95.81;99130.86;220556;1277;22554;-78
2022/08/30 06:26:17;;;;;;;15.60;7.20;;;;;;;14.54;95.86;99134.59;219383;1278;1002538;-75
2022/08/30 06:31:40;;;;;;;14.80;7.80;;;;;;;14.81;95.67;99137.30;219167;1278;1003141;-74
2022/08/30 06:37:48;;;;;;;13.80;7.80;;;;;;;15.07;95.71;99141.19;219600;1280;24233;-74
2022/08/30 06:43:23;;;;;;;9.80;6.60;;;;;;;15.37;95.25;99139.27;219350;1278;1002380;-75
2022/08/30 06:49:31;;;;;;;11.00;6.80;;;;;;;15.65;94.83;99144.30;216187;1278;1003607;-75
2022/08/30 06:54:57;;;;;;;10.20;6.70;;;;;;;15.93;94.95;99151.15;219460;1280;22619;-75
2022/08/30 07:00:52;;;;;;;13.00;6.50;;;;;;;16.23;94.44;99151.43;219421;1279;22566;-74
2022/08/30 07:06:31;;;;;;;10.70;7.00;;;;;;;16.58;93.95;99157.70;219797;1279;22545;-74
2022/08/30 07:12:06;;;;;;;12.00;7.60;;;;;;;17.15;93.50;99161.61;220033;1279;25534;-75
2022/08/30 07:23:10;;;;;;;9.00;6.50;;;;;;;18.18;91.47;99154.96;219716;1277;24278;-75
2022/08/30 07:28:18;;;;;;;8.60;6.50;;;;;;;18.42;90.45;99155.06;220110;1277;23748;-74
2022/08/30 07:33:39;;;;;;;10.90;6.70;;;;;;;18.65;89.82;99153.34;219872;1277;22565;-76
2022/08/30 07:38:48;;;;;;;9.20;6.50;;;;;;;18.84;88.56;99153.02;220149;1277;24438;-75
2022/08/30 07:44:06;;;;;;;9.30;6.30;;;;;;;18.77;88.02;99156.02;220132;1276;22690;-75
2022/08/30 07:49:31;;;;;;;12.40;6.90;;;;;;;18.91;88.03;99160.70;219128;1282;24344;-75
2022/08/30 07:54:36;;;;;;;14.20;6.10;;;;;;;19.19;87.68;99164.15;219071;1282;26426;-76
2022/08/30 08:00:01;;;;;;;9.00;5.80;;;;;;;19.54;87.25;99170.52;219433;1282;26399;-76
2022/08/30 08:05:40;;;;;;;8.10;4.90;;;;;;;19.86;85.86;99172.92;214255;1282;1003262;-75
2022/08/30 08:10:45;;;;;;;9.30;5.60;;;;;;;20.13;84.96;99174.15;218644;1278;1002610;-75
2022/08/30 08:15:51;;;;;;;7.10;4.90;;;;;;;20.41;84.17;99176.38;219833;1279;22566;-75
2022/08/30 08:20:53;;;;;;;6.70;4.90;;;;;;;20.57;83.53;99170.63;220015;1277;23292;-75
2022/08/30 08:26:06;;;;;;;8.40;4.70;;;;;;;20.97;83.19;99175.54;219726;1276;1002818;-75
2022/08/30 08:31:29;;;;;;;8.90;4.50;;;;;;;21.26;82.00;99184.32;219941;1277;22700;-75
2022/08/30 08:37:09;;;;;;;5.80;4.50;;;;;;;21.34;80.87;99183.57;220796;1276;22580;-75
2022/08/30 08:42:26;;;;;;;5.10;3.60;;;;;;;21.75;80.60;99181.71;219785;1277;22538;-76
2022/08/30 08:47:45;;;;;;;6.10;3.80;;;;;;;21.81;78.32;99184.73;219913;1279;23460;-75
2022/08/30 08:59:00;;;;;;;6.60;4.30;;;;;;;21.65;77.28;99193.25;220188;1276;25382;-75
2022/08/30 09:04:10;;;;;;;3.50;3.20;;;;;;;21.52;76.64;99194.48;218551;1276;1003154;-74
2022/08/30 09:09:26;;;;;;;4.30;3.80;;;;;;;21.63;76.75;99184.14;217199;1277;1015833;-75
2022/08/30 09:14:54;;;;;;;3.90;3.40;;;;;;;21.98;76.52;99193.61;220337;1276;22536;-75
2022/08/30 09:20:07;;;;;;;5.10;3.20;;;;;;;22.34;75.60;99191.27;219944;1277;25396;-75
2022/08/30 09:25:33;;;;;;;5.10;3.40;;;;;;;22.25;74.29;99186.96;219749;1277;22592;-75
2022/08/30 09:31:24;;;;;;;3.90;3.20;;;;;;;22.14;73.89;99186.27;220189;1276;22628;-73
2022/08/30 09:36:32;;;;;;;3.60;3.10;;;;;;;22.35;73.90;99188.38;220097;1277;24156;-75
2022/08/30 09:41:47;;;;;;;4.80;4.00;;;;;;;22.21;72.50;99185.19;220180;1277;25538;-75
2022/08/30 09:47:24;;;;;;;5.80;3.80;;;;;;;22.35;73.46;99189.62;220325;1276;24308;-75
2022/08/30 09:52:35;;;;;;;4.00;3.60;;;;;;;22.38;73.30;99184.39;220264;1277;25379;-74
2022/08/30 09:58:04;;;;;;;6.00;3.90;;;;;;;22.07;72.83;99178.95;220097;1277;22595;-74
2022/08/30 10:03:55;;;;;;;5.20;4.40;;;;;;;22.05;73.19;99173.98;220461;1276;25516;-75
2022/08/30 10:09:30;;;;;;;8.50;5.30;;;;;;;22.17;73.06;99167.86;219870;1277;24522;-77
2022/08/30 10:14:44;;;;;;;5.60;4.10;;;;;;;22.22;72.57;99172.02;220353;1276;24240;-75
2022/08/30 10:20:10;;;;;;;8.40;4.80;;;;;;;22.31;72.80;99167.79;220058;1276;22581;-74
2022/08/30 10:25:24;;;;;;;6.00;4.50;;;;;;;22.34;70.00;99166.36;220359;1276;23002;-75
2022/08/30 10:30:28;;;;;;;4.90;4.10;;;;;;;22.54;70.76;99154.16;220313;1276;22715;-75
2022/08/30 10:35:43;;;;;;;3.80;3.40;;;;;;;22.99;70.96;99148.46;220932;1276;23800;-76
2022/08/30 10:41:15;;;;;;;4.50;3.90;;;;;;;23.08;69.22;99150.09;221429;1276;22567;-75
2022/08/30 10:46:49;;;;;;;4.30;3.80;;;;;;;22.83;68.94;99151.59;220208;1276;22679;-75
2022/08/30 10:52:26;;;;;;;4.20;3.20;;;;;;;22.67;68.85;99145.99;220972;1276;24383;-75
2022/08/30 10:57:37;;;;;;;4.50;3.70;;;;;;;22.79;67.47;99140.91;220831;1276;22679;-75
2022/08/30 11:03:03;;;;;;;6.20;5.30;;;;;;;22.98;68.03;99133.76;220264;1276;25233;-75
2022/08/30 11:08:39;;;;;;;4.20;3.80;;;;;;;23.21;67.83;99129.35;220705;1276;24272;-75
2022/08/30 11:14:13;;;;;;;6.20;3.80;;;;;;;23.28;67.38;99124.22;220561;1279;22568;-76
2022/08/30 11:19:47;;;;;;;3.90;2.80;;;;;;;23.29;66.78;99129.95;220005;1279;25416;-74
2022/08/30 11:25:04;;;;;;;3.20;2.90;;;;;;;23.57;66.33;99119.67;219576;1279;22780;-76
2022/08/30 11:30:27;;;;;;;2.20;2.00;;;;;;;23.88;65.15;99112.80;219595;1281;24312;-74
2022/08/30 11:35:42;;;;;;;2.60;2.40;;;;;;;24.14;63.63;99110.35;219718;1279;22723;-75
2022/08/30 11:41:09;;;;;;;6.40;3.20;;;;;;;24.41;63.16;99109.10;219986;1276;22587;-76
2022/08/30 11:46:27;;;;;;;3.90;2.80;;;;;;;24.45;62.80;99110.48;220088;1276;22700;-74
2022/08/30 11:51:35;;;;;;;3.30;3.10;;;;;;;24.22;62.59;99108.17;220185;1276;25432;-74
2022/08/30 11:57:03;;;;;;;4.00;2.90;;;;;;;24.17;62.95;99107.73;220357;1276;22578;-73
2022/08/30 12:02:07;;;;;;;3.50;2.80;;;;;;;24.40;62.41;99103.70;220186;1276;24240;-74
2022/08/30 12:07:30;;;;;;;3.30;2.70;;;;;;;24.45;61.29;99095.61;220169;1276;24299;-74
2022/08/30 12:12:36;;;;;;;3.80;3.00;;;;;;;24.39;61.39;99106.34;220075;1276;23641;-75
2022/08/30 12:18:30;;;;;;;3.40;2.40;;;;;;;24.10;61.44;99101.15;219872;1276;22690;-73
2022/08/30 12:24:11;;;;;;;2.70;2.50;;;;;;;23.78;61.80;99100.08;220004;1276;22605;-75
2022/08/30 12:29:24;;;;;;;3.90;3.00;;;;;;;23.56;62.26;99090.70;220284;1276;24257;-74
2022/08/30 12:35:04;;;;;;;2.80;2.60;;;;;;;23.61;63.05;99078.11;220258;1276;22588;-76
2022/08/30 12:40:30;;;;;;;2.70;2.30;;;;;;;23.75;62.62;99077.76;219897;1276;25626;-74
2022/08/30 12:45:42;;;;;;;2.80;2.40;;;;;;;23.81;61.11;99068.30;220044;1277;22541;-75
2022/08/30 12:50:57;;;;;;;2.40;2.00;;;;;;;23.81;61.20;99063.91;220310;1276;22682;-73
2022/08/30 12:56:16;;;;;;;2.90;2.50;;;;;;;23.95;61.20;99055.67;220309;1276;25348;-74
2022/08/30 13:01:35;;;;;;;4.70;2.40;;;;;;;24.12;59.56;99054.26;220172;1277;22579;-75
2022/08/30 13:07:03;;;;;;;2.30;2.10;;;;;;;24.26;59.80;99051.29;220270;1276;22611;-75
2022/08/30 13:12:24;;;;;;;3.40;2.20;;;;;;;24.35;59.82;99047.40;220233;1276;22725;-74
2022/08/30 13:17:30;;;;;;;2.50;2.30;;;;;;;24.54;59.99;99040.25;220207;1277;26763;-74
2022/08/30 13:23:01;;;;;;;3.40;2.80;;;;;;;24.76;59.55;99035.95;220297;1276;24437;-73
2022/08/30 13:28:16;;;;;;;2.50;2.30;;;;;;;25.00;58.91;99035.13;220346;1276;22566;-75
2022/08/30 13:33:45;;;;;;;2.60;2.40;;;;;;;24.90;58.62;99039.98;220643;1276;22614;-75
2022/08/30 13:38:50;;;;;;;2.60;2.10;;;;;;;24.57;58.39;99037.09;220289;1277;23416;-74
2022/08/30 13:43:53;;;;;;;2.20;2.00;;;;;;;24.31;58.11;99039.23;220309;1277;22708;-75
2022/08/30 13:49:43;;;;;;;2.30;2.00;;;;;;;24.29;58.26;99031.92;219338;1276;22708;-75
2022/08/30 13:54:47;;;;;;;2.70;2.20;;;;;;;24.41;57.40;99029.79;220212;1276;24293;-74
2022/08/30 14:00:12;;;;;;;5.10;2.60;;;;;;;24.64;57.28;99026.11;220271;1276;22795;-77
2022/08/30 14:06:07;;;;;;;2.60;2.40;;;;;;;24.59;56.15;99028.73;220053;1276;22575;-74
2022/08/30 14:11:40;;;;;;;2.90;2.70;;;;;;;24.34;56.53;99021.73;220197;1276;26731;-75
2022/08/30 14:16:56;;;;;;;2.30;2.10;;;;;;;24.17;56.10;99018.11;190536;1277;1004666;-75
2022/08/30 14:22:00;;;;;;;2.40;2.00;;;;;;;24.01;56.58;99000.42;204347;1276;1005521;-75
2022/08/30 14:27:06;;;;;;;2.30;2.20;;;;;;;23.95;56.66;98996.67;213992;1276;1014979;-73
2022/08/30 14:32:23;;;;;;;3.20;2.00;;;;;;;23.93;56.02;98995.95;219945;1276;24387;-73
2022/08/30 14:37:45;;;;;;;1.90;1.80;;;;;;;23.88;55.39;98993.46;218403;1276;1003828;-74
2022/08/30 14:42:47;;;;;;;2.00;1.80;;;;;;;23.76;55.09;98996.26;219733;1276;22564;-73
2022/08/30 14:48:09;;;;;;;2.20;1.70;;;;;;;23.72;55.19;98988.34;219092;1276;1002140;-77
2022/08/30 14:53:20;;;;;;;1.90;1.80;;;;;;;23.75;54.81;98987.03;219869;1276;24232;-74
2022/08/30 14:58:31;;;;;;;2.20;2.00;;;;;;;23.71;53.83;98985.19;219726;1276;22669;-74
2022/08/30 15:03:38;;;;;;;2.40;1.70;;;;;;;23.63;53.45;98983.67;219766;1277;25380;-75
2022/08/30 15:08:45;;;;;;;3.70;2.20;;;;;;;23.66;53.80;98983.80;219749;1276;22545;-78
2022/08/30 15:14:30;;;;;;;1.70;1.60;;;;;;;23.69;53.46;98973.04;219777;1277;22644;-73
2022/08/30 15:19:44;;;;;;;2.80;1.90;;;;;;;23.67;53.31;98980.52;219762;1276;22591;-74
2022/08/30 15:24:59;;;;;;;1.80;1.60;;;;;;;23.61;53.35;98977.48;219781;1277;25484;-74
2022/08/30 15:30:23;;;;;;;1.80;1.70;;;;;;;23.52;52.75;98979.00;219887;1276;25125;-75
2022/08/30 15:35:28;;;;;;;2.00;1.60;;;;;;;23.45;52.61;98983.21;219929;1276;25262;-74
2022/08/30 15:41:03;;;;;;;1.80;1.50;;;;;;;23.38;52.43;98977.49;219795;1276;22833;-74
2022/08/30 15:46:33;;;;;;;3.00;1.50;;;;;;;23.29;52.77;98977.83;207487;1276;1018356;-74
2022/08/30 15:51:47;;;;;;;1.70;1.60;;;;;;;23.24;53.01;98974.95;118590;1276;1005879;-74
2022/08/30 15:57:01;;;;;;;1.80;1.70;;;;;;;23.23;53.38;98978.92;109693;1276;1016588;-74
2022/08/30 16:02:09;;;;;;;3.50;1.70;;;;;;;23.19;53.25;98974.56;109799;1276;1016378;-74
2022/08/30 16:07:15;;;;;;;1.60;1.50;;;;;;;23.14;53.11;98971.05;109833;1276;1016719;-74
2022/08/30 16:12:17;;;;;;;2.00;1.60;;;;;;;23.07;53.56;98967.27;109700;1276;1018339;-74
2022/08/30 16:17:24;;;;;;;2.60;1.80;;;;;;;22.97;54.04;98968.35;109690;1276;1018653;-74
2022/08/30 16:22:26;;;;;;;2.30;1.90;;;;;;;22.83;54.78;98965.09;109615;1276;1016858;-74
2022/08/30 16:27:30;;;;;;;2.80;1.70;;;;;;;22.65;55.71;98966.05;109634;1276;1016494;-74
2022/08/30 16:32:33;;;;;;;2.20;1.80;;;;;;;22.43;56.15;98964.52;109671;1276;1016840;-74
2022/08/30 16:37:47;;;;;;;2.10;1.90;;;;;;;22.22;56.82;98968.79;109832;1275;1017629;-74
2022/08/30 16:43:03;;;;;;;2.20;2.00;;;;;;;22.04;57.68;98968.23;109675;1276;1019321;-74
2022/08/30 16:48:17;;;;;;;2.40;2.10;;;;;;;21.86;58.27;98963.44;109699;1276;1016656;-74
2022/08/30 16:53:25;;;;;;;2.60;2.20;;;;;;;21.71;59.07;98966.00;109733;1275;1017312;-73
2022/08/30 16:58:30;;;;;;;1.80;1.70;;;;;;;21.55;59.53;98966.45;109707;1276;1018186;-73
2022/08/30 17:03:42;;;;;;;2.00;1.90;;;;;;;21.39;59.89;98971.77;109690;1276;1016628;-74
2022/08/30 17:08:48;;;;;;;2.10;1.90;;;;;;;21.21;60.22;98969.69;109682;1276;1016675;-74
2022/08/30 17:13:58;;;;;;;2.20;1.80;;;;;;;21.03;60.29;98976.36;109634;1276;1016359;-73
2022/08/30 17:19:05;;;;;;;2.00;1.80;;;;;;;20.87;60.48;98982.89;109649;1276;1016744;-73
2022/08/30 17:24:17;;;;;;;2.00;1.80;;;;;;;20.71;60.72;98983.11;109684;1277;1016665;-73
2022/08/30 17:29:32;;;;;;;2.70;2.10;;;;;;;20.57;61.10;98984.55;109860;1276;1016611;-74
2022/08/30 17:35:00;;;;;;;7.00;3.40;;;;;;;20.41;61.49;98996.27;109698;1277;1016697;-74
2022/08/30 17:40:12;;;;;;;3.60;2.40;;;;;;;20.26;61.83;99000.36;109700;1277;1017062;-73
2022/08/30 17:45:23;;;;;;;8.30;2.90;;;;;;;20.11;62.29;99002.54;109639;1274;1017853;-73
2022/08/30 17:50:35;;;;;;;;;;;;;;;;;;;;;
2022/08/30 17:55:49;;;;;;;4.40;2.20;;;;;;;19.80;63.11;99006.77;109781;1276;1017311;-72
2022/08/30 18:01:27;;;;;;;;;;;;;;;;;;;;;
2022/08/30 18:06:38;;;;;;;2.60;2.10;;;;;;;19.45;64.23;99013.35;109750;1276;1019185;-73
2022/08/30 18:11:43;;;;;;;4.50;1.90;;;;;;;19.30;64.73;99016.00;109789;1277;1016395;-72
2022/08/30 18:16:52;;;;;;;4.50;2.50;;;;;;;19.19;65.34;99018.69;109713;1276;1017032;-74
2022/08/30 18:21:58;;;;;;;4.20;2.60;;;;;;;19.09;65.61;99024.80;109648;1278;1016344;-74
2022/08/30 18:27:16;;;;;;;;;;;;;;;;;;;;;
2022/08/30 18:32:22;;;;;;;3.50;2.70;;;;;;;19.00;66.73;99038.08;109754;1276;1017881;-74
2022/08/30 18:37:44;;;;;;;3.00;2.40;;;;;;;18.93;67.12;99045.48;109772;1276;1016872;-74
2022/08/30 18:42:57;;;;;;;5.20;2.70;;;;;;;18.87;67.41;99052.33;109884;1276;1016646;-73
2022/08/30 18:48:13;;;;;;;3.40;2.80;;;;;;;18.80;67.97;99051.00;109586;1278;1018956;-73
2022/08/30 18:53:30;;;;;;;4.00;2.80;;;;;;;18.73;68.25;99046.23;109688;1277;1016352;-73
2022/08/30 18:59:55;;;;;;;6.00;3.60;;;;;;;18.58;68.97;99051.56;109727;1278;1016505;-73
2022/08/30 19:05:17;;;;;;;11.80;5.60;;;;;;;18.46;69.36;99056.73;109567;1279;1016660;-73
2022/08/30 19:10:23;;;;;;;8.30;4.60;;;;;;;18.32;69.85;99054.36;109454;1279;1016621;-74
2022/08/30 19:15:32;;;;;;;5.40;3.70;;;;;;;18.19;70.25;99051.50;109445;1278;1017314;-74
2022/08/30 19:20:54;;;;;;;7.40;3.70;;;;;;;18.04;70.80;99048.34;109640;1277;1018263;-74
2022/08/30 19:25:59;;;;;;;6.70;3.80;;;;;;;17.94;71.41;99048.75;109636;1278;1016711;-73
2022/08/30 19:31:02;;;;;;;5.20;3.70;;;;;;;17.90;71.81;99052.46;109546;1278;1016754;-72
2022/08/30 19:36:28;;;;;;;6.30;4.40;;;;;;;17.82;72.03;99050.84;109625;1280;1018311;-73
2022/08/30 19:42:00;;;;;;;6.30;4.30;;;;;;;17.73;72.31;99052.72;109507;1280;1016668;-73
2022/08/30 19:47:05;;;;;;;6.10;4.40;;;;;;;17.63;72.65;99052.30;109569;1280;1016838;-74
2022/08/30 19:52:08;;;;;;;11.30;5.70;;;;;;;17.55;72.96;99052.13;109560;1279;1016488;-73
2022/08/30 19:57:20;;;;;;;11.30;6.20;;;;;;;17.45;73.27;99054.22;109433;1278;1016687;-74
2022/08/30 20:02:33;;;;;;;;;;;;;;;;;;;;;
2022/08/30 20:07:53;;;;;;;11.00;6.70;;;;;;;17.27;73.95;99047.50;109552;1280;1016746;-73
2022/08/30 20:13:08;;;;;;;10.30;6.50;;;;;;;17.19;74.40;99046.17;109506;1278;1016954;-73
2022/08/30 20:18:13;;;;;;;14.50;7.10;;;;;;;17.14;74.75;99047.33;109733;1277;1018034;-73
2022/08/30 20:24:12;;;;;;;15.10;8.80;;;;;;;17.11;75.11;99049.56;109637;1276;1016345;-73
2022/08/30 20:29:39;;;;;;;;;;;;;;;;;;;;;
2022/08/30 20:35:13;;;;;;;12.70;7.70;;;;;;;17.03;75.65;99044.98;109737;1277;1016810;-73
2022/08/30 20:40:23;;;;;;;12.10;7.30;;;;;;;16.97;75.88;99045.48;109667;1276;1016614;-74
2022/08/30 20:45:32;;;;;;;12.60;8.40;;;;;;;16.88;76.11;99042.48;109655;1277;1016967;-74
2022/08/30 20:51:02;;;;;;;7.90;6.00;;;;;;;16.77;76.31;99032.16;109775;1277;1016231;-73
2022/08/30 20:56:17;;;;;;;9.50;5.10;;;;;;;16.66;76.67;99025.84;109524;1277;1016681;-74
2022/08/30 21:01:40;;;;;;;7.20;5.00;;;;;;;16.56;76.89;99030.27;109713;1276;1016240;-73
2022/08/30 21:07:11;;;;;;;7.60;5.30;;;;;;;16.46;77.40;99036.25;109735;1277;1016973;-74
2022/08/30 21:12:31;;;;;;;8.90;5.50;;;;;;;16.36;77.73;99036.52;109722;1277;1018338;-73
2022/08/30 21:18:16;;;;;;;6.40;4.70;;;;;;;16.26;78.09;99034.30;109705;1277;1019185;-74
2022/08/30 21:24:14;;;;;;;6.40;4.20;;;;;;;16.12;78.29;99035.65;109765;1276;1016915;-73
2022/08/30 21:29:28;;;;;;;4.90;4.20;;;;;;;15.99;78.62;99040.86;109739;1277;1016883;-73
2022/08/30 21:41:05;;;;;;;7.10;4.90;;;;;;;15.80;79.12;99044.69;109629;1277;1017312;-74
2022/08/30 21:47:10;;;;;;;8.80;5.90;;;;;;;15.73;79.40;99049.02;109825;1277;1016352;-73
2022/08/30 21:52:57;;;;;;;;;;;;;;;;;;;;;
2022/08/30 21:59:12;;;;;;;9.60;6.60;;;;;;;15.54;79.76;99059.17;109847;1277;1016330;-73
2022/08/30 22:04:29;;;;;;;9.60;7.00;;;;;;;15.47;80.17;99055.21;109714;1278;1016834;-73
2022/08/30 22:10:30;;;;;;;10.00;6.50;;;;;;;15.39;80.28;99051.98;109640;1278;1016730;-73
2022/08/30 22:16:06;;;;;;;9.70;6.50;;;;;;;15.30;80.46;99048.18;109629;1278;1017181;-73
2022/08/30 22:22:05;;;;;;;9.00;6.40;;;;;;;15.22;80.64;99035.18;109689;1277;1016479;-73
2022/08/30 22:27:30;;;;;;;;;;;;;;;;;;;;;
2022/08/30 22:33:29;;;;;;;6.60;5.00;;;;;;;15.10;81.08;99035.27;109869;1277;1016846;-73
2022/08/30 22:39:16;;;;;;;;;;;;;;;;;;;;;
2022/08/30 22:44:45;;;;;;;6.10;4.60;;;;;;;14.98;81.34;99041.63;109188;1281;1016695;-74
2022/08/30 22:51:12;;;;;;;6.80;4.80;;;;;;;14.89;81.62;99036.82;109312;1280;1016409;-72
2022/08/30 22:56:49;;;;;;;7.00;5.00;;;;;;;14.84;81.83;99040.95;109568;1281;1016427;-72
2022/08/30 23:03:00;;;;;;;7.10;5.20;;;;;;;14.79;82.01;99035.64;109594;1278;1016425;-74
2022/08/30 23:08:47;;;;;;;7.40;4.70;;;;;;;14.75;82.33;99037.68;109673;1278;1016618;-73
2022/08/30 23:14:17;;;;;;;7.30;4.80;;;;;;;14.71;82.37;99034.07;109533;1281;1018766;-73
2022/08/30 23:19:35;;;;;;;9.60;5.10;;;;;;;14.66;82.56;99036.56;109260;1282;1019070;-74
